Time;durP1;ratioP1;P1;durP2;ratioP2;P2;SDS_P1;SDS_P2;PMS_P1;PMS_P2;Temp;Humidity;BMP_temperature;BMP_pressure;BME280_temperature;BME280_humidity;BME280_pressure;Samples;Min_cycle;Max_cycle;Signal;HPM_P1;HPM_P2
2023/01/30 00:00:57;;;;;;;30.37;15.63;;;;;;;;;;770686;180;817772;-71
2023/01/30 00:03:23;;;;;;;31.75;14.90;;;;;;;;;;777968;176;1016764;-72
2023/01/30 00:05:49;;;;;;;25.57;15.90;;;;;;;;;;778942;179;1122095;-64
2023/01/30 00:08:15;;;;;;;21.57;13.60;;;;;;;;;;786114;176;918156;-70
2023/01/30 00:10:41;;;;;;;22.00;13.10;;;;;;;;;;788106;176;920242;-71
2023/01/30 00:13:07;;;;;;;21.25;13.82;;;;;;;;;;784380;176;816573;-71
2023/01/30 00:15:33;;;;;;;26.90;15.60;;;;;;;;;;792086;177;918117;-70
2023/01/30 00:17:59;;;;;;;23.30;13.97;;;;;;;;;;791222;176;917850;-63
2023/01/30 00:20:24;;;;;;;25.60;14.90;;;;;;;;;;777006;179;936958;-64
2023/01/30 00:22:50;;;;;;;23.57;13.03;;;;;;;;;;786786;179;862936;-72
2023/01/30 00:25:16;;;;;;;25.40;13.38;;;;;;;;;;797873;175;914221;-70
2023/01/30 00:27:42;;;;;;;31.20;14.63;;;;;;;;;;782664;177;918648;-65
2023/01/30 00:30:08;;;;;;;21.37;12.53;;;;;;;;;;780977;177;919066;-71
2023/01/30 00:32:34;;;;;;;19.20;12.03;;;;;;;;;;776841;180;919573;-72
2023/01/30 00:35:00;;;;;;;19.73;11.53;;;;;;;;;;779779;176;922040;-64
2023/01/30 00:37:26;;;;;;;24.17;13.77;;;;;;;;;;777231;180;918573;-71
2023/01/30 00:39:52;;;;;;;23.60;13.68;;;;;;;;;;778389;180;920333;-71
2023/01/30 00:47:21;;;;;;;21.13;12.63;;;;;;;;;;777382;180;917297;-65
2023/01/30 00:49:47;;;;;;;25.30;12.97;;;;;;;;;;774994;180;820432;-64
2023/01/30 00:52:13;;;;;;;19.50;12.00;;;;;;;;;;771630;178;909004;-64
2023/01/30 00:54:38;;;;;;;21.62;15.23;;;;;;;;;;761667;183;917546;-64
2023/01/30 00:57:04;;;;;;;21.33;12.87;;;;;;;;;;768005;181;1023138;-64
2023/01/30 00:59:30;;;;;;;24.10;13.80;;;;;;;;;;764390;181;819601;-64
2023/01/30 01:01:56;;;;;;;25.10;14.40;;;;;;;;;;768361;180;918786;-64
2023/01/30 01:04:22;;;;;;;22.13;12.87;;;;;;;;;;776487;180;918872;-70
2023/01/30 01:06:48;;;;;;;19.90;12.97;;;;;;;;;;768972;180;919071;-71
2023/01/30 01:09:13;;;;;;;26.73;14.20;;;;;;;;;;765082;180;927607;-71
2023/01/30 01:11:39;;;;;;;24.70;14.30;;;;;;;;;;764729;182;919248;-71
2023/01/30 01:14:05;;;;;;;26.57;15.27;;;;;;;;;;778652;176;920297;-63
2023/01/30 01:16:31;;;;;;;24.65;13.57;;;;;;;;;;777934;177;901801;-72
2023/01/30 01:18:57;;;;;;;24.30;13.97;;;;;;;;;;764258;180;1021134;-70
2023/01/30 01:21:23;;;;;;;28.60;12.30;;;;;;;;;;767575;183;920064;-64
2023/01/30 01:23:49;;;;;;;23.07;13.77;;;;;;;;;;763060;183;920944;-64
2023/01/30 01:26:14;;;;;;;24.90;11.67;;;;;;;;;;763100;184;918123;-66
2023/01/30 01:28:40;;;;;;;24.30;11.13;;;;;;;;;;770069;182;919249;-64
2023/01/30 01:31:06;;;;;;;27.43;15.23;;;;;;;;;;768568;179;819791;-64
2023/01/30 01:33:32;;;;;;;20.03;11.83;;;;;;;;;;770467;179;918037;-70
2023/01/30 01:35:58;;;;;;;18.87;11.13;;;;;;;;;;779014;180;918575;-72
2023/01/30 01:38:24;;;;;;;14.67;9.73;;;;;;;;;;768992;179;917761;-64
2023/01/30 01:43:21;;;;;;;20.13;13.20;;;;;;;;;;790564;174;920677;-71
2023/01/30 01:45:47;;;;;;;19.30;11.90;;;;;;;;;;791893;176;919334;-64
2023/01/30 01:48:14;;;;;;;24.20;13.03;;;;;;;;;;783774;176;914718;-72
2023/01/30 01:50:39;;;;;;;19.13;12.57;;;;;;;;;;773719;179;919684;-64
2023/01/30 01:53:05;;;;;;;18.97;12.30;;;;;;;;;;782119;176;918165;-64
2023/01/30 01:55:31;;;;;;;16.13;10.60;;;;;;;;;;777843;180;915473;-64
2023/01/30 01:58:07;;;;;;;21.23;10.73;;;;;;;;;;778161;180;898785;-64
2023/01/30 02:00:33;;;;;;;19.50;10.20;;;;;;;;;;771564;180;918719;-64
2023/01/30 02:02:58;;;;;;;19.67;12.18;;;;;;;;;;772695;181;816565;-71
2023/01/30 02:05:24;;;;;;;20.30;10.43;;;;;;;;;;779648;179;919365;-63
2023/01/30 02:07:51;;;;;;;20.03;10.40;;;;;;;;;;777800;179;919259;-64
2023/01/30 02:10:17;;;;;;;22.30;12.63;;;;;;;;;;773559;180;916607;-65
2023/01/30 02:12:43;;;;;;;20.67;12.53;;;;;;;;;;794296;174;913728;-72
2023/01/30 02:15:09;;;;;;;20.58;11.55;;;;;;;;;;777747;178;818918;-63
2023/01/30 02:17:35;;;;;;;21.87;12.70;;;;;;;;;;785466;176;941765;-71
2023/01/30 02:20:03;;;;;;;19.33;12.93;;;;;;;;;;789782;177;918305;-71
2023/01/30 02:22:47;;;;;;;19.20;11.57;;;;;;;;;;777750;180;919139;-71
2023/01/30 02:25:13;;;;;;;18.90;11.57;;;;;;;;;;769593;180;919562;-64
2023/01/30 02:27:47;;;;;;;17.40;10.57;;;;;;;;;;766649;183;919379;-73
2023/01/30 02:30:19;;;;;;;18.27;8.93;;;;;;;;;;762238;180;919731;-64
2023/01/30 02:32:45;;;;;;;20.40;11.03;;;;;;;;;;767676;183;1015855;-68
2023/01/30 02:35:17;;;;;;;20.37;12.20;;;;;;;;;;761537;180;919489;-64
2023/01/30 02:37:48;;;;;;;18.33;10.20;;;;;;;;;;770671;181;919638;-70
2023/01/30 02:40:13;;;;;;;19.13;10.80;;;;;;;;;;766641;181;919766;-72
2023/01/30 02:42:41;;;;;;;26.47;13.80;;;;;;;;;;774488;182;819425;-64
2023/01/30 02:45:26;;;;;;;18.10;10.87;;;;;;;;;;770647;181;919385;-63
2023/01/30 02:47:55;;;;;;;22.00;13.83;;;;;;;;;;777293;180;920069;-64
2023/01/30 02:50:22;;;;;;;21.40;13.27;;;;;;;;;;763867;182;917187;-71
2023/01/30 02:52:48;;;;;;;25.23;13.90;;;;;;;;;;762591;183;920354;-65
2023/01/30 02:55:16;;;;;;;24.57;14.73;;;;;;;;;;780534;180;816805;-71
2023/01/30 02:57:42;;;;;;;21.80;13.53;;;;;;;;;;765517;177;918879;-71
2023/01/30 03:00:09;;;;;;;32.20;14.70;;;;;;;;;;763954;180;919380;-72
2023/01/30 03:02:35;;;;;;;28.20;17.73;;;;;;;;;;762522;183;918359;-65
2023/01/30 03:05:17;;;;;;;18.13;12.77;;;;;;;;;;767754;180;919332;-71
2023/01/30 03:07:44;;;;;;;28.70;15.87;;;;;;;;;;775249;181;854060;-63
2023/01/30 03:10:24;;;;;;;26.10;14.63;;;;;;;;;;772627;180;920608;-71
2023/01/30 03:13:00;;;;;;;20.40;13.47;;;;;;;;;;781946;177;916351;-64
2023/01/30 03:15:29;;;;;;;22.92;14.18;;;;;;;;;;762063;180;935798;-75
2023/01/30 03:17:55;;;;;;;23.90;14.25;;;;;;;;;;761714;184;914880;-72
2023/01/30 03:20:20;;;;;;;17.80;9.20;;;;;;;;;;775214;180;919707;-64
2023/01/30 03:22:46;;;;;;;27.10;16.27;;;;;;;;;;772292;180;922620;-65
2023/01/30 03:25:13;;;;;;;22.83;12.73;;;;;;;;;;769462;180;919095;-71
2023/01/30 03:27:39;;;;;;;18.20;10.03;;;;;;;;;;771083;179;916714;-61
2023/01/30 03:30:05;;;;;;;22.67;14.20;;;;;;;;;;765690;180;916071;-72
2023/01/30 03:32:31;;;;;;;25.30;15.70;;;;;;;;;;763065;183;1022817;-64
2023/01/30 03:34:57;;;;;;;27.67;14.33;;;;;;;;;;766317;180;918609;-66
2023/01/30 03:37:23;;;;;;;22.10;13.60;;;;;;;;;;764871;182;1634416;-71
2023/01/30 03:39:49;;;;;;;26.80;14.87;;;;;;;;;;762733;180;919432;-64
2023/01/30 03:42:15;;;;;;;24.63;15.57;;;;;;;;;;761184;184;919072;-64
2023/01/30 03:44:41;;;;;;;30.83;15.37;;;;;;;;;;768175;181;918612;-71
2023/01/30 03:47:07;;;;;;;26.40;16.27;;;;;;;;;;764775;181;818452;-65
2023/01/30 03:49:33;;;;;;;32.30;18.30;;;;;;;;;;766296;180;617960;-65
2023/01/30 03:51:59;;;;;;;32.43;14.47;;;;;;;;;;771233;181;820184;-64
2023/01/30 03:54:24;;;;;;;29.80;16.33;;;;;;;;;;773482;179;816287;-72
2023/01/30 03:56:50;;;;;;;24.87;14.53;;;;;;;;;;778929;179;792059;-64
2023/01/30 03:59:16;;;;;;;25.43;14.70;;;;;;;;;;781916;180;919505;-64
2023/01/30 04:01:42;;;;;;;30.73;17.73;;;;;;;;;;775877;179;922475;-65
2023/01/30 04:04:08;;;;;;;29.87;17.67;;;;;;;;;;774324;179;918621;-65
2023/01/30 04:06:34;;;;;;;28.25;16.20;;;;;;;;;;774531;176;919116;-70
2023/01/30 04:08:59;;;;;;;25.20;15.43;;;;;;;;;;784242;176;910961;-64
2023/01/30 04:11:25;;;;;;;25.73;16.30;;;;;;;;;;780562;180;917017;-64
2023/01/30 04:13:51;;;;;;;23.97;14.33;;;;;;;;;;775459;176;919500;-64
2023/01/30 04:16:19;;;;;;;30.30;18.30;;;;;;;;;;776350;177;924008;-71
2023/01/30 04:18:45;;;;;;;25.70;15.60;;;;;;;;;;761708;183;919152;-64
2023/01/30 04:21:10;;;;;;;25.93;16.73;;;;;;;;;;763698;183;938788;-65
2023/01/30 04:23:36;;;;;;;27.93;15.77;;;;;;;;;;767238;183;1036612;-71
2023/01/30 04:26:02;;;;;;;27.87;15.60;;;;;;;;;;765514;180;920488;-64
2023/01/30 04:28:28;;;;;;;30.30;18.10;;;;;;;;;;765915;183;919486;-71
2023/01/30 04:30:54;;;;;;;33.50;16.73;;;;;;;;;;764195;180;919207;-71
2023/01/30 04:33:20;;;;;;;29.20;16.33;;;;;;;;;;781031;180;918510;-65
2023/01/30 04:35:50;;;;;;;28.97;17.17;;;;;;;;;;771790;180;915973;-63
2023/01/30 04:38:16;;;;;;;28.00;15.13;;;;;;;;;;770934;180;905663;-64
2023/01/30 04:40:42;;;;;;;30.20;17.40;;;;;;;;;;770221;180;917012;-64
2023/01/30 04:43:08;;;;;;;26.80;16.47;;;;;;;;;;765499;180;978003;-65
2023/01/30 04:45:34;;;;;;;30.47;16.87;;;;;;;;;;760011;184;919276;-71
2023/01/30 04:48:00;;;;;;;32.07;18.17;;;;;;;;;;768817;178;1009484;-65
2023/01/30 04:50:25;;;;;;;26.27;15.57;;;;;;;;;;783516;178;825814;-64
2023/01/30 04:52:51;;;;;;;26.43;15.37;;;;;;;;;;776517;176;916619;-64
2023/01/30 04:55:17;;;;;;;24.02;16.12;;;;;;;;;;783688;176;919597;-77
2023/01/30 04:57:43;;;;;;;30.83;18.73;;;;;;;;;;782557;178;919002;-71
2023/01/30 05:00:10;;;;;;;25.20;15.60;;;;;;;;;;784174;177;919269;-64
2023/01/30 05:02:35;;;;;;;25.00;15.80;;;;;;;;;;782862;176;911807;-65
2023/01/30 05:05:01;;;;;;;28.37;17.97;;;;;;;;;;780899;179;815615;-71
2023/01/30 05:07:27;;;;;;;27.87;15.47;;;;;;;;;;767842;179;918094;-65
2023/01/30 05:09:53;;;;;;;29.87;16.30;;;;;;;;;;774449;180;871782;-64
2023/01/30 05:12:19;;;;;;;28.03;16.87;;;;;;;;;;772883;180;919091;-65
2023/01/30 05:14:45;;;;;;;32.67;18.53;;;;;;;;;;784763;178;920033;-71
2023/01/30 05:17:11;;;;;;;28.10;16.93;;;;;;;;;;773967;177;858497;-65
2023/01/30 05:19:36;;;;;;;29.13;15.93;;;;;;;;;;776812;179;916994;-72
2023/01/30 05:22:02;;;;;;;29.77;16.67;;;;;;;;;;779861;180;709283;-72
2023/01/30 05:24:28;;;;;;;33.90;18.10;;;;;;;;;;778572;180;789091;-71
2023/01/30 05:26:54;;;;;;;33.25;18.92;;;;;;;;;;779775;179;918364;-64
2023/01/30 05:29:20;;;;;;;24.80;15.43;;;;;;;;;;780024;180;814776;-71
2023/01/30 05:31:46;;;;;;;25.57;14.23;;;;;;;;;;773941;177;918564;-70
2023/01/30 05:34:11;;;;;;;26.92;14.60;;;;;;;;;;773223;177;816402;-64
2023/01/30 05:36:37;;;;;;;22.80;13.47;;;;;;;;;;771638;177;903580;-64
2023/01/30 05:39:03;;;;;;;20.97;13.83;;;;;;;;;;780363;176;916817;-64
2023/01/30 05:41:29;;;;;;;22.83;12.40;;;;;;;;;;768704;180;1019631;-72
2023/01/30 05:43:55;;;;;;;28.43;16.37;;;;;;;;;;771997;178;913448;-71
2023/01/30 05:46:21;;;;;;;25.37;15.50;;;;;;;;;;768235;182;819127;-64
2023/01/30 05:48:47;;;;;;;25.87;16.40;;;;;;;;;;753818;183;715709;-64
2023/01/30 05:51:13;;;;;;;23.67;16.17;;;;;;;;;;777938;178;713298;-73
2023/01/30 05:53:39;;;;;;;27.13;15.30;;;;;;;;;;763524;182;919465;-71
2023/01/30 05:56:05;;;;;;;22.47;12.67;;;;;;;;;;748048;184;1020810;-64
2023/01/30 05:58:31;;;;;;;20.25;13.38;;;;;;;;;;758416;182;917428;-65
2023/01/30 06:00:58;;;;;;;17.17;10.33;;;;;;;;;;781667;176;855816;-64
2023/01/30 06:03:24;;;;;;;21.57;11.80;;;;;;;;;;774483;177;918338;-70
2023/01/30 06:05:50;;;;;;;19.60;12.77;;;;;;;;;;767700;180;918741;-64
2023/01/30 06:08:16;;;;;;;23.10;13.43;;;;;;;;;;769686;180;915656;-70
2023/01/30 06:10:42;;;;;;;22.73;13.10;;;;;;;;;;771884;180;919173;-63
2023/01/30 06:13:09;;;;;;;15.40;11.30;;;;;;;;;;770245;179;918024;-71
2023/01/30 06:15:33;;;;;;;21.87;13.23;;;;;;;;;;769706;180;919474;-71
2023/01/30 06:17:59;;;;;;;22.30;13.17;;;;;;;;;;779645;179;813960;-63
2023/01/30 06:20:25;;;;;;;16.53;10.23;;;;;;;;;;785588;175;913386;-63
2023/01/30 06:22:51;;;;;;;19.87;12.20;;;;;;;;;;784423;175;919280;-71
2023/01/30 06:25:17;;;;;;;20.33;11.60;;;;;;;;;;775603;176;918191;-63
2023/01/30 06:27:43;;;;;;;21.17;13.40;;;;;;;;;;769986;180;860037;-63
2023/01/30 06:30:09;;;;;;;18.67;11.50;;;;;;;;;;762121;181;917881;-67
2023/01/30 06:32:35;;;;;;;22.07;13.73;;;;;;;;;;761748;183;918896;-71
2023/01/30 06:35:01;;;;;;;20.37;11.80;;;;;;;;;;772186;180;815976;-63
2023/01/30 06:37:26;;;;;;;21.37;10.57;;;;;;;;;;782620;176;918668;-63
2023/01/30 06:39:52;;;;;;;18.57;11.17;;;;;;;;;;775347;179;917995;-70
2023/01/30 06:42:18;;;;;;;22.97;11.73;;;;;;;;;;768985;180;918717;-70
2023/01/30 06:44:44;;;;;;;20.90;12.10;;;;;;;;;;778129;179;820632;-70
2023/01/30 06:47:10;;;;;;;18.37;10.97;;;;;;;;;;782835;176;918097;-71
2023/01/30 06:49:36;;;;;;;15.70;9.82;;;;;;;;;;786024;177;919012;-63
2023/01/30 06:52:01;;;;;;;17.53;10.93;;;;;;;;;;766598;179;916284;-63
2023/01/30 06:54:27;;;;;;;20.10;12.20;;;;;;;;;;765026;181;919321;-70
2023/01/30 06:56:53;;;;;;;18.10;11.33;;;;;;;;;;783242;176;922433;-64
2023/01/30 06:59:19;;;;;;;19.43;8.63;;;;;;;;;;786684;178;919617;-72
2023/01/30 07:01:45;;;;;;;12.83;9.43;;;;;;;;;;791812;176;918395;-72
2023/01/30 07:04:11;;;;;;;20.77;11.75;;;;;;;;;;776715;178;922533;-64
2023/01/30 07:06:36;;;;;;;17.85;11.27;;;;;;;;;;771084;181;915246;-64
2023/01/30 07:09:02;;;;;;;15.73;10.93;;;;;;;;;;773525;180;918470;-71
2023/01/30 07:11:29;;;;;;;18.97;13.00;;;;;;;;;;773696;177;920675;-73
2023/01/30 07:13:54;;;;;;;18.33;11.90;;;;;;;;;;794322;174;635191;-70
2023/01/30 07:16:22;;;;;;;23.77;13.43;;;;;;;;;;775182;180;1018986;-70
2023/01/30 07:18:46;;;;;;;20.43;12.70;;;;;;;;;;783821;176;815776;-63
2023/01/30 07:21:12;;;;;;;17.60;11.93;;;;;;;;;;781665;176;627043;-63
2023/01/30 07:23:37;;;;;;;18.40;9.20;;;;;;;;;;780732;179;658067;-63
2023/01/30 07:26:03;;;;;;;22.20;12.73;;;;;;;;;;780376;175;817337;-71
2023/01/30 07:28:29;;;;;;;17.90;9.93;;;;;;;;;;769918;181;918202;-63
2023/01/30 07:30:55;;;;;;;19.77;11.10;;;;;;;;;;767121;181;918147;-63
2023/01/30 07:33:21;;;;;;;24.05;11.15;;;;;;;;;;762834;180;916286;-63
2023/01/30 07:35:47;;;;;;;20.83;13.13;;;;;;;;;;765239;180;913245;-63
2023/01/30 07:38:13;;;;;;;21.80;12.80;;;;;;;;;;754986;183;923181;-71
2023/01/30 07:40:38;;;;;;;18.43;10.43;;;;;;;;;;781320;176;916677;-67
2023/01/30 07:43:04;;;;;;;19.20;11.80;;;;;;;;;;782186;176;917171;-63
2023/01/30 07:45:33;;;;;;;22.02;12.45;;;;;;;;;;787106;177;920367;-71
2023/01/30 07:47:59;;;;;;;25.10;12.60;;;;;;;;;;785453;179;919054;-72
2023/01/30 07:50:25;;;;;;;22.87;13.83;;;;;;;;;;778470;177;919257;-70
2023/01/30 07:52:51;;;;;;;24.40;14.93;;;;;;;;;;771466;180;916088;-70
2023/01/30 07:55:16;;;;;;;22.70;12.40;;;;;;;;;;792774;177;815555;-71
2023/01/30 07:57:42;;;;;;;23.93;12.77;;;;;;;;;;773382;180;918964;-63
2023/01/30 08:00:09;;;;;;;24.87;13.27;;;;;;;;;;765127;180;917537;-70
2023/01/30 08:02:34;;;;;;;20.70;13.00;;;;;;;;;;768338;183;819225;-63
2023/01/30 08:05:00;;;;;;;28.20;13.40;;;;;;;;;;762138;180;919393;-63
2023/01/30 08:07:26;;;;;;;23.17;13.03;;;;;;;;;;761355;183;920397;-63
2023/01/30 08:09:52;;;;;;;26.60;14.37;;;;;;;;;;768511;180;716287;-72
2023/01/30 08:12:18;;;;;;;12.63;7.30;;;;;;;;;;770082;180;918610;-63
2023/01/30 08:14:44;;;;;;;16.77;10.60;;;;;;;;;;771785;180;915149;-62
2023/01/30 08:17:09;;;;;;;14.73;9.33;;;;;;;;;;761227;184;876929;-63
2023/01/30 08:19:35;;;;;;;17.70;10.83;;;;;;;;;;773324;181;918217;-71
2023/01/30 08:22:01;;;;;;;19.67;13.13;;;;;;;;;;764451;182;918654;-71
2023/01/30 08:24:27;;;;;;;19.13;11.93;;;;;;;;;;775130;179;919739;-71
2023/01/30 08:26:53;;;;;;;25.27;14.77;;;;;;;;;;789588;174;915125;-71
2023/01/30 08:29:19;;;;;;;25.98;13.55;;;;;;;;;;790512;175;921729;-63
2023/01/30 08:31:44;;;;;;;24.60;14.93;;;;;;;;;;787594;176;920032;-63
2023/01/30 08:34:10;;;;;;;24.90;14.40;;;;;;;;;;788507;177;920130;-70
2023/01/30 08:36:36;;;;;;;25.50;12.90;;;;;;;;;;774114;178;920586;-70
2023/01/30 08:39:02;;;;;;;22.87;15.57;;;;;;;;;;771594;179;818442;-63
2023/01/30 08:41:28;;;;;;;17.37;9.33;;;;;;;;;;784335;176;919766;-63
2023/01/30 08:43:54;;;;;;;24.17;13.03;;;;;;;;;;784184;177;889604;-63
2023/01/30 08:46:20;;;;;;;18.37;11.60;;;;;;;;;;781336;177;817323;-71
2023/01/30 08:48:45;;;;;;;18.87;9.13;;;;;;;;;;761891;181;919350;-69
2023/01/30 08:51:11;;;;;;;15.57;8.80;;;;;;;;;;776060;180;1020044;-63
2023/01/30 08:53:37;;;;;;;24.58;12.90;;;;;;;;;;771043;180;907212;-63
2023/01/30 08:56:03;;;;;;;22.90;13.30;;;;;;;;;;770707;180;916849;-64
2023/01/30 08:58:29;;;;;;;24.53;12.83;;;;;;;;;;783572;180;915807;-71
2023/01/30 09:00:55;;;;;;;24.13;14.10;;;;;;;;;;789172;175;877765;-71
2023/01/30 09:03:20;;;;;;;20.50;12.80;;;;;;;;;;789843;175;917006;-63
2023/01/30 09:05:46;;;;;;;19.50;12.98;;;;;;;;;;782110;179;919793;-62
2023/01/30 09:08:12;;;;;;;15.40;10.00;;;;;;;;;;763129;180;918655;-70
2023/01/30 09:10:38;;;;;;;19.73;11.90;;;;;;;;;;763245;183;919055;-70
2023/01/30 09:13:04;;;;;;;21.60;13.00;;;;;;;;;;767001;179;920383;-63
2023/01/30 09:15:30;;;;;;;20.37;11.83;;;;;;;;;;783039;179;914873;-63
2023/01/30 09:17:56;;;;;;;25.12;13.48;;;;;;;;;;765201;180;921791;-65
2023/01/30 09:20:21;;;;;;;22.53;12.87;;;;;;;;;;766497;180;919169;-63
2023/01/30 09:22:48;;;;;;;18.40;11.70;;;;;;;;;;782894;178;908176;-63
2023/01/30 09:25:13;;;;;;;20.73;11.43;;;;;;;;;;776632;179;919705;-70
2023/01/30 09:27:43;;;;;;;19.83;12.60;;;;;;;;;;776817;179;920187;-70
2023/01/30 09:30:05;;;;;;;13.60;9.43;;;;;;;;;;794621;176;919650;-71
2023/01/30 09:32:31;;;;;;;17.17;9.90;;;;;;;;;;782101;176;920850;-71
2023/01/30 09:34:57;;;;;;;19.60;10.70;;;;;;;;;;780252;178;863302;-63
2023/01/30 09:37:23;;;;;;;19.50;9.83;;;;;;;;;;779922;177;919988;-70
2023/01/30 09:39:49;;;;;;;20.60;10.93;;;;;;;;;;788494;177;919195;-70
2023/01/30 09:42:31;;;;;;;14.00;9.57;;;;;;;;;;783903;177;919734;-71
2023/01/30 09:45:02;;;;;;;17.27;10.20;;;;;;;;;;773083;180;917096;-71
2023/01/30 09:47:35;;;;;;;16.27;10.65;;;;;;;;;;778428;177;918135;-63
2023/01/30 09:50:05;;;;;;;21.07;10.40;;;;;;;;;;784941;177;916689;-64
2023/01/30 09:52:30;;;;;;;20.80;11.20;;;;;;;;;;782635;179;815172;-64
2023/01/30 09:55:11;;;;;;;19.03;12.07;;;;;;;;;;777211;177;816049;-63
2023/01/30 09:57:37;;;;;;;19.97;9.77;;;;;;;;;;782027;176;918139;-72
2023/01/30 10:00:02;;;;;;;16.90;10.33;;;;;;;;;;775120;180;913786;-64
2023/01/30 10:02:43;;;;;;;20.05;11.30;;;;;;;;;;770616;180;918537;-65
2023/01/30 10:05:09;;;;;;;23.23;11.90;;;;;;;;;;785091;177;919214;-72
2023/01/30 10:07:37;;;;;;;19.87;11.35;;;;;;;;;;768562;180;919473;-65
2023/01/30 10:10:02;;;;;;;15.03;8.67;;;;;;;;;;767821;180;918776;-65
2023/01/30 10:12:29;;;;;;;16.58;10.43;;;;;;;;;;772174;179;919648;-66
2023/01/30 10:14:59;;;;;;;14.00;8.77;;;;;;;;;;773362;179;922539;-73
2023/01/30 10:17:31;;;;;;;16.80;9.95;;;;;;;;;;775903;176;919984;-74
2023/01/30 10:19:58;;;;;;;19.60;10.23;;;;;;;;;;790477;176;918907;-64
2023/01/30 10:22:39;;;;;;;16.63;9.93;;;;;;;;;;779205;179;919325;-64
2023/01/30 10:25:07;;;;;;;19.23;10.03;;;;;;;;;;773970;180;817670;-74
2023/01/30 10:27:33;;;;;;;13.63;9.23;;;;;;;;;;783180;179;919379;-74
2023/01/30 10:29:58;;;;;;;15.80;9.93;;;;;;;;;;777789;177;919711;-61
2023/01/30 10:32:27;;;;;;;19.53;11.10;;;;;;;;;;774081;180;919229;-64
2023/01/30 10:34:51;;;;;;;25.53;11.33;;;;;;;;;;780075;180;814895;-76
2023/01/30 10:37:26;;;;;;;13.40;7.87;;;;;;;;;;782231;176;919873;-64
2023/01/30 10:39:59;;;;;;;13.57;6.83;;;;;;;;;;780575;179;921727;-63
2023/01/30 10:42:26;;;;;;;15.50;7.13;;;;;;;;;;780475;176;947650;-75
2023/01/30 10:44:52;;;;;;;17.83;9.77;;;;;;;;;;771416;181;818106;-75
2023/01/30 10:47:17;;;;;;;10.67;5.77;;;;;;;;;;768745;180;918778;-63
2023/01/30 10:49:44;;;;;;;16.50;8.70;;;;;;;;;;775575;180;1021269;-73
2023/01/30 10:52:15;;;;;;;17.37;10.00;;;;;;;;;;782562;176;892135;-71
2023/01/30 10:54:45;;;;;;;10.17;6.77;;;;;;;;;;764039;183;917071;-72
2023/01/30 10:57:15;;;;;;;18.93;10.30;;;;;;;;;;782722;177;1021724;-71
2023/01/30 10:59:51;;;;;;;8.30;5.93;;;;;;;;;;785141;177;918821;-73
2023/01/30 11:02:23;;;;;;;16.77;10.50;;;;;;;;;;782639;178;919844;-62
2023/01/30 11:04:52;;;;;;;20.23;10.53;;;;;;;;;;778719;176;921405;-62
2023/01/30 11:07:18;;;;;;;14.40;9.63;;;;;;;;;;779071;179;919528;-62
2023/01/30 11:09:44;;;;;;;13.20;7.57;;;;;;;;;;760090;181;918849;-74
2023/01/30 11:12:10;;;;;;;16.80;10.50;;;;;;;;;;756680;180;1022244;-73
2023/01/30 11:14:41;;;;;;;14.55;8.68;;;;;;;;;;768319;180;818982;-71
2023/01/30 11:17:07;;;;;;;14.37;8.40;;;;;;;;;;781998;179;919665;-62
2023/01/30 11:19:33;;;;;;;11.60;6.53;;;;;;;;;;766144;177;816468;-62
2023/01/30 11:21:59;;;;;;;14.40;10.00;;;;;;;;;;764623;180;816929;-62
2023/01/30 11:24:28;;;;;;;21.43;10.40;;;;;;;;;;772283;180;746515;-72
2023/01/30 11:26:54;;;;;;;16.70;9.60;;;;;;;;;;773380;179;919189;-62
2023/01/30 11:29:31;;;;;;;16.27;8.33;;;;;;;;;;776239;179;919077;-63
2023/01/30 11:31:56;;;;;;;16.70;10.60;;;;;;;;;;769197;180;815615;-71
2023/01/30 11:34:22;;;;;;;18.43;9.77;;;;;;;;;;792184;176;715712;-62
2023/01/30 11:36:48;;;;;;;18.40;9.83;;;;;;;;;;785747;176;1016780;-71
2023/01/30 11:39:22;;;;;;;10.70;7.10;;;;;;;;;;780728;176;919229;-62
2023/01/30 11:41:48;;;;;;;15.63;10.63;;;;;;;;;;770211;179;917256;-62
2023/01/30 11:44:14;;;;;;;17.23;8.40;;;;;;;;;;768881;182;881904;-62
2023/01/30 11:46:39;;;;;;;20.77;12.05;;;;;;;;;;764558;182;919369;-62
2023/01/30 11:49:10;;;;;;;20.53;9.97;;;;;;;;;;765350;182;916192;-62
2023/01/30 11:51:36;;;;;;;15.23;9.27;;;;;;;;;;767779;183;898499;-72
2023/01/30 11:54:03;;;;;;;23.40;12.77;;;;;;;;;;763689;183;918499;-61
2023/01/30 11:56:33;;;;;;;17.80;9.33;;;;;;;;;;749611;184;922678;-61
2023/01/30 11:58:59;;;;;;;23.07;11.50;;;;;;;;;;772063;179;920521;-61
2023/01/30 12:01:25;;;;;;;19.57;12.27;;;;;;;;;;768772;184;919249;-69
2023/01/30 12:03:51;;;;;;;20.97;10.90;;;;;;;;;;760846;181;918887;-61
2023/01/30 12:06:20;;;;;;;17.37;11.40;;;;;;;;;;760979;182;1021954;-69
2023/01/30 12:08:46;;;;;;;17.40;11.47;;;;;;;;;;785997;177;876662;-61
2023/01/30 12:11:26;;;;;;;22.70;12.60;;;;;;;;;;774546;179;917968;-69
2023/01/30 12:13:53;;;;;;;25.00;13.67;;;;;;;;;;768507;178;913142;-61
2023/01/30 12:16:19;;;;;;;19.10;11.52;;;;;;;;;;762118;180;1020898;-62
2023/01/30 12:18:47;;;;;;;26.47;12.83;;;;;;;;;;762713;179;917684;-62
2023/01/30 12:21:29;;;;;;;22.83;13.77;;;;;;;;;;783540;177;919260;-61
2023/01/30 12:23:55;;;;;;;19.97;12.83;;;;;;;;;;776518;180;918067;-70
2023/01/30 12:26:40;;;;;;;20.23;12.63;;;;;;;;;;778515;174;918792;-70
2023/01/30 12:29:12;;;;;;;23.07;13.33;;;;;;;;;;765106;180;920074;-61
2023/01/30 12:31:38;;;;;;;22.20;11.40;;;;;;;;;;761810;183;920482;-70
2023/01/30 12:34:04;;;;;;;21.30;13.33;;;;;;;;;;772640;180;934176;-61
2023/01/30 12:36:31;;;;;;;19.10;11.37;;;;;;;;;;776509;180;919082;-70
2023/01/30 12:39:03;;;;;;;17.20;10.97;;;;;;;;;;765738;180;914081;-68
2023/01/30 12:41:39;;;;;;;21.93;11.07;;;;;;;;;;764409;181;920376;-71
2023/01/30 12:44:12;;;;;;;16.67;9.60;;;;;;;;;;760863;184;922324;-70
2023/01/30 12:46:38;;;;;;;17.47;10.33;;;;;;;;;;767816;184;777925;-69
2023/01/30 12:49:07;;;;;;;16.10;9.90;;;;;;;;;;773027;180;919412;-61
2023/01/30 12:51:48;;;;;;;19.80;11.20;;;;;;;;;;776518;179;1017631;-60
2023/01/30 12:54:27;;;;;;;15.03;9.70;;;;;;;;;;778121;177;919648;-70
2023/01/30 12:56:53;;;;;;;18.60;12.23;;;;;;;;;;760912;182;920379;-61
2023/01/30 12:59:34;;;;;;;18.30;9.13;;;;;;;;;;774749;177;945878;-69
2023/01/30 13:02:15;;;;;;;19.83;12.40;;;;;;;;;;786171;176;905860;-61
2023/01/30 13:04:46;;;;;;;18.00;10.80;;;;;;;;;;768002;181;918776;-69
2023/01/30 13:07:14;;;;;;;13.33;9.07;;;;;;;;;;785730;179;919248;-71
2023/01/30 13:09:50;;;;;;;16.60;9.70;;;;;;;;;;765006;177;919407;-61
2023/01/30 13:12:16;;;;;;;22.53;12.77;;;;;;;;;;772130;181;919089;-61
2023/01/30 13:14:59;;;;;;;20.53;11.23;;;;;;;;;;766019;180;940899;-62
2023/01/30 13:17:28;;;;;;;18.20;9.67;;;;;;;;;;765421;181;920149;-61
2023/01/30 13:19:55;;;;;;;23.83;11.23;;;;;;;;;;774081;180;920550;-70
2023/01/30 13:22:22;;;;;;;11.77;7.57;;;;;;;;;;774330;180;918783;-70
2023/01/30 13:24:48;;;;;;;23.00;12.03;;;;;;;;;;778292;179;919145;-61
2023/01/30 13:27:14;;;;;;;18.70;11.60;;;;;;;;;;787380;176;918016;-69
2023/01/30 13:29:40;;;;;;;16.50;10.83;;;;;;;;;;778305;178;1022063;-70
2023/01/30 13:32:06;;;;;;;17.87;10.90;;;;;;;;;;770165;178;919784;-72
2023/01/30 13:34:32;;;;;;;21.97;12.23;;;;;;;;;;773903;180;919172;-61
2023/01/30 13:36:58;;;;;;;17.43;10.30;;;;;;;;;;786426;177;815428;-70
2023/01/30 13:39:27;;;;;;;19.87;12.35;;;;;;;;;;773221;176;919504;-61
2023/01/30 13:41:53;;;;;;;25.60;14.17;;;;;;;;;;769071;177;920545;-70
2023/01/30 13:44:21;;;;;;;20.92;11.98;;;;;;;;;;784856;177;1012418;-69
2023/01/30 13:46:47;;;;;;;20.30;11.77;;;;;;;;;;775463;179;916907;-62
2023/01/30 13:49:16;;;;;;;16.20;9.90;;;;;;;;;;773618;178;827536;-70
2023/01/30 13:51:43;;;;;;;22.90;11.20;;;;;;;;;;763173;181;919195;-70
2023/01/30 13:54:11;;;;;;;25.20;12.30;;;;;;;;;;783964;177;914756;-70
2023/01/30 13:56:38;;;;;;;21.70;13.40;;;;;;;;;;773619;180;928592;-70
2023/01/30 13:59:10;;;;;;;19.62;11.85;;;;;;;;;;767843;180;918577;-70
2023/01/30 14:01:42;;;;;;;17.67;11.60;;;;;;;;;;763235;180;918937;-70
2023/01/30 14:04:13;;;;;;;16.83;8.20;;;;;;;;;;774521;180;816309;-61
2023/01/30 14:06:39;;;;;;;23.63;13.60;;;;;;;;;;785068;176;821231;-71
2023/01/30 14:09:05;;;;;;;19.98;12.73;;;;;;;;;;766939;178;816977;-61
2023/01/30 14:11:36;;;;;;;22.77;12.47;;;;;;;;;;772768;180;1025856;-70
2023/01/30 14:14:02;;;;;;;20.20;11.60;;;;;;;;;;778184;180;919874;-70